createdAt,value
2022-11-23T00:01:27.300Z,104.53
2022-11-23T00:06:12.749Z,88.50
2022-11-23T00:11:01.142Z,97.20
2022-11-23T00:15:46.463Z,91.45
2022-11-23T00:20:34.198Z,85.93
2022-11-23T00:25:19.634Z,92.22
2022-11-23T00:30:04.724Z,98.18
2022-11-23T00:34:50.048Z,118.07
2022-11-23T00:39:37.695Z,94.45
2022-11-23T00:44:22.961Z,91.07
2022-11-23T00:49:07.943Z,94.22
2022-11-23T00:53:54.132Z,102.25
2022-11-23T00:58:41.907Z,91.88
2022-11-23T01:03:27.199Z,93.70
2022-11-23T01:08:12.404Z,83.75
2022-11-23T01:12:57.677Z,83.10
2022-11-23T01:17:45.276Z,81.53
2022-11-23T01:22:30.568Z,73.05
2022-11-23T01:27:15.576Z,67.07
2022-11-23T01:32:00.875Z,58.30
2022-11-23T01:36:48.803Z,70.25
2022-11-23T01:41:35.978Z,55.08
2022-11-23T01:46:21.731Z,62.28
2022-11-23T01:51:10.871Z,58.92
2022-11-23T01:56:02.527Z,71.80
2022-11-23T02:00:47.945Z,65.43
2022-11-23T02:05:37.100Z,63.95
2022-11-23T02:10:23.599Z,68.20
2022-11-23T02:15:12.136Z,59.25
2022-11-23T02:20:06.967Z,40.05
2022-11-23T02:24:57.040Z,39.80
2022-11-23T02:29:45.307Z,54.85
2022-11-23T02:34:30.491Z,44.97
2022-11-23T02:39:18.724Z,47.33
2022-11-23T02:44:03.940Z,39.85
2022-11-23T02:48:51.792Z,31.77
2022-11-23T02:53:37.211Z,52.53
2022-11-23T02:58:22.503Z,39.92
2022-11-23T03:03:07.885Z,38.60
2022-11-23T03:07:55.797Z,38.88
2022-11-23T03:12:40.856Z,43.38
2022-11-23T03:17:27.740Z,35.53
2022-11-23T03:22:12.918Z,33.38
2022-11-23T03:27:00.943Z,34.58
2022-11-23T03:31:45.965Z,30.52
2022-11-23T03:36:31.237Z,23.40
2022-11-23T03:41:16.270Z,19.95
2022-11-23T03:46:04.165Z,13.65
2022-11-23T03:50:49.146Z,20.77
2022-11-23T03:55:34.682Z,18.90
2022-11-23T04:00:20.037Z,19.38
2022-11-23T04:05:08.769Z,17.70
2022-11-23T04:09:54.289Z,16.75
2022-11-23T04:14:39.816Z,15.90
2022-11-23T04:19:25.203Z,12.02
2022-11-23T04:24:13.173Z,19.95
2022-11-23T04:28:58.198Z,20.90
2022-11-23T04:33:43.493Z,14.93
2022-11-23T04:38:28.531Z,19.85
2022-11-23T04:43:16.432Z,19.45
2022-11-23T04:48:01.403Z,16.35
2022-11-23T04:52:46.918Z,18.83
2022-11-23T04:57:31.951Z,25.88
2022-11-23T05:02:19.818Z,25.58
2022-11-23T05:07:04.888Z,18.50
2022-11-23T05:11:50.179Z,17.17
2022-11-23T05:16:35.364Z,28.52
2022-11-23T05:21:23.478Z,27.23
2022-11-23T05:26:08.839Z,19.83
2022-11-23T05:30:54.481Z,24.42
2022-11-23T05:35:39.557Z,23.38
2022-11-23T05:40:27.786Z,21.02
2022-11-23T05:45:13.524Z,24.58
2022-11-23T05:49:58.956Z,29.00
2022-11-23T05:54:43.981Z,25.17
2022-11-23T05:59:32.196Z,27.70
2022-11-23T06:04:17.739Z,14.30
2022-11-23T06:09:03.267Z,26.65
2022-11-23T06:13:49.703Z,17.35
2022-11-23T06:18:37.715Z,17.50
2022-11-23T06:23:25.675Z,18.20
2022-11-23T06:28:11.118Z,12.07
2022-11-23T06:32:56.115Z,16.90
2022-11-23T06:37:44.039Z,16.95
2022-11-23T06:42:39.063Z,13.23
2022-11-23T06:47:26.587Z,17.85
2022-11-23T06:52:11.991Z,12.77
2022-11-23T06:56:59.868Z,20.27
2022-11-23T07:01:44.918Z,13.65
2022-11-23T07:06:30.228Z,15.45
2022-11-23T07:11:15.300Z,18.80
2022-11-23T07:16:03.318Z,12.93
2022-11-23T07:20:48.401Z,13.98
2022-11-23T07:25:34.464Z,24.52
2022-11-23T07:30:19.884Z,21.13
2022-11-23T07:35:08.590Z,25.67
2022-11-23T07:45:33.184Z,31.40
2022-11-23T07:50:21.571Z,34.35
2022-11-23T07:55:07.912Z,31.42
2022-11-23T07:59:53.292Z,36.78
2022-11-23T08:04:38.680Z,21.92
2022-11-23T08:09:26.576Z,22.75
2022-11-23T08:14:12.003Z,40.58
2022-11-23T08:18:57.036Z,34.58
2022-11-23T08:23:42.385Z,41.22
2022-11-23T08:28:30.275Z,43.58
2022-11-23T08:33:16.452Z,52.67
2022-11-23T08:38:01.534Z,63.55
2022-11-23T08:42:46.889Z,63.60
2022-11-23T08:47:34.815Z,74.35
2022-11-23T08:52:20.202Z,65.18
2022-11-23T08:57:05.580Z,59.13
2022-11-23T09:01:50.652Z,49.55
2022-11-23T09:06:38.883Z,52.40
2022-11-23T09:11:24.194Z,43.83
2022-11-23T09:16:10.769Z,39.72
2022-11-23T09:20:56.067Z,41.55
2022-11-23T09:25:47.907Z,39.20
2022-11-23T09:30:33.160Z,36.78
2022-11-23T09:35:18.631Z,38.05
2022-11-23T09:40:03.667Z,39.40
2022-11-23T09:45:10.211Z,33.63
2022-11-23T09:50:04.918Z,33.28
2022-11-23T09:54:52.782Z,38.20
2022-11-23T09:59:44.115Z,42.47
2022-11-23T10:04:36.868Z,39.10
2022-11-23T10:09:33.785Z,45.88
2022-11-23T10:14:35.559Z,47.10
2022-11-23T10:24:22.219Z,53.63
2022-11-23T10:29:15.882Z,44.88
2022-11-23T10:34:07.572Z,55.25
2022-11-23T10:38:57.369Z,41.80
2022-11-23T10:43:50.805Z,40.53
2022-11-23T10:48:38.841Z,40.08
2022-11-23T10:53:28.683Z,49.65
2022-11-23T10:58:28.627Z,42.85
2022-11-23T11:03:26.685Z,54.13
2022-11-23T11:08:17.968Z,60.80
2022-11-23T11:13:03.366Z,22.10
2022-11-23T11:17:59.048Z,24.25
2022-11-23T11:22:48.027Z,35.42
2022-11-23T11:27:34.491Z,41.80
2022-11-23T11:32:26.197Z,42.38
2022-11-23T11:37:16.839Z,43.60
2022-11-23T11:42:10.141Z,45.92
2022-11-23T11:47:03.136Z,41.90
2022-11-23T11:51:51.790Z,45.28
2022-11-23T11:56:42.083Z,44.63
2022-11-23T12:01:39.156Z,45.90
2022-11-23T12:06:30.348Z,48.70
2022-11-23T12:11:16.269Z,36.85
2022-11-23T12:16:13.170Z,43.17
2022-11-23T12:21:07.057Z,34.88
2022-11-23T12:26:01.063Z,31.67
2022-11-23T12:30:55.925Z,33.70
2022-11-23T12:35:52.243Z,35.58
2022-11-23T12:41:09.837Z,39.20
2022-11-23T12:46:13.250Z,47.72
2022-11-23T12:51:10.586Z,44.03
2022-11-23T12:56:02.156Z,53.35
2022-11-23T13:00:54.945Z,52.22
2022-11-23T13:06:09.952Z,39.72
2022-11-23T13:11:05.598Z,45.45
2022-11-23T13:16:22.227Z,35.90
2022-11-23T13:21:20.665Z,38.78
2022-11-23T13:26:19.740Z,32.72
2022-11-23T13:31:27.053Z,27.60
2022-11-23T13:36:19.733Z,35.00
2022-11-23T13:41:05.894Z,36.85
2022-11-23T13:46:29.662Z,32.35
2022-11-23T13:51:25.099Z,30.25
2022-11-23T13:56:27.431Z,36.00
2022-11-23T14:01:13.353Z,44.45
2022-11-23T14:06:04.383Z,32.67
2022-11-23T14:10:52.230Z,45.63
2022-11-23T14:15:40.531Z,34.92
2022-11-23T14:21:00.019Z,41.85
2022-11-23T14:25:58.022Z,47.30
2022-11-23T14:30:54.867Z,41.55
2022-11-23T14:35:51.236Z,46.40
2022-11-23T14:40:57.667Z,41.95
2022-11-23T14:45:44.215Z,32.90
2022-11-23T14:50:31.721Z,20.88
2022-11-23T14:55:22.752Z,22.13
2022-11-23T15:00:32.320Z,21.42
2022-11-23T15:05:25.037Z,26.33
2022-11-23T15:10:20.092Z,28.30
2022-11-23T15:15:05.507Z,30.83
2022-11-23T15:20:00.967Z,31.05
2022-11-23T15:24:47.383Z,29.85
2022-11-23T15:29:37.803Z,42.08
2022-11-23T15:34:24.669Z,36.25
2022-11-23T15:39:20.470Z,35.45
2022-11-23T15:44:20.103Z,52.58
2022-11-23T15:49:07.471Z,32.47
2022-11-23T15:53:54.160Z,38.95
2022-11-23T15:58:42.204Z,36.95
2022-11-23T16:03:37.861Z,44.05
2022-11-23T16:08:28.272Z,34.67
2022-11-23T16:13:37.310Z,41.53
2022-11-23T16:18:32.033Z,34.97
2022-11-23T16:23:23.075Z,43.58
2022-11-23T16:28:16.489Z,29.80
2022-11-23T16:33:01.812Z,39.65
2022-11-23T16:37:50.195Z,37.97
2022-11-23T16:42:35.296Z,42.33
2022-11-23T16:47:26.706Z,39.88
2022-11-23T16:52:11.920Z,44.03
2022-11-23T16:56:59.871Z,40.53
2022-11-23T17:01:46.672Z,46.13
2022-11-23T17:06:32.222Z,40.28
2022-11-23T17:11:18.696Z,49.72
2022-11-23T17:16:07.151Z,45.25
2022-11-23T17:20:52.249Z,49.80
2022-11-23T17:25:38.895Z,43.20
2022-11-23T17:30:26.799Z,50.25
2022-11-23T17:35:14.775Z,51.35
2022-11-23T17:39:59.842Z,49.17
2022-11-23T17:44:45.311Z,39.58
2022-11-23T17:49:31.364Z,43.33
2022-11-23T17:54:19.765Z,48.60
2022-11-23T17:59:05.101Z,48.05
2022-11-23T18:03:50.791Z,44.03
2022-11-23T18:08:35.983Z,45.78
2022-11-23T18:13:23.977Z,43.13
2022-11-23T18:18:09.170Z,54.60
2022-11-23T18:22:54.640Z,48.95
2022-11-23T18:27:39.954Z,54.38
2022-11-23T18:32:28.071Z,55.63
2022-11-23T18:37:13.117Z,51.25
2022-11-23T18:42:04.105Z,46.67
2022-11-23T18:46:50.786Z,53.58
2022-11-23T18:51:38.811Z,55.15
2022-11-23T18:56:24.177Z,48.78
2022-11-23T19:01:12.497Z,48.20
2022-11-23T19:06:04.497Z,53.30
2022-11-23T19:10:52.457Z,47.22
2022-11-23T19:15:39.764Z,46.58
2022-11-23T19:20:25.805Z,56.42
2022-11-23T19:25:12.199Z,50.72
2022-11-23T19:29:59.812Z,45.55
2022-11-23T19:34:45.155Z,56.08
2022-11-23T19:39:30.602Z,43.55
2022-11-23T19:44:16.167Z,31.35
2022-11-23T19:49:05.386Z,51.10
2022-11-23T19:53:51.927Z,33.97
2022-11-23T19:58:38.019Z,38.97
2022-11-23T20:03:23.127Z,31.35
2022-11-23T20:08:11.574Z,35.40
2022-11-23T20:12:56.636Z,35.10
2022-11-23T20:17:42.084Z,39.42
2022-11-23T20:22:27.712Z,26.77
2022-11-23T20:27:16.350Z,34.17
2022-11-23T20:32:01.738Z,32.53
2022-11-23T20:36:47.297Z,38.45
2022-11-23T20:41:34.741Z,32.80
2022-11-23T20:46:45.632Z,40.22
2022-11-23T20:51:28.661Z,33.63
2022-11-23T20:56:15.100Z,38.97
2022-11-23T21:01:05.208Z,42.47
2022-11-23T21:05:52.918Z,45.13
2022-11-23T21:10:50.679Z,36.22
2022-11-23T21:15:36.068Z,46.30
2022-11-23T21:20:21.373Z,36.72
2022-11-23T21:25:10.208Z,45.08
2022-11-23T21:29:55.334Z,41.20
2022-11-23T21:34:40.715Z,40.63
2022-11-23T21:39:26.463Z,44.47
2022-11-23T21:44:15.292Z,61.80
2022-11-23T21:49:01.909Z,51.33
2022-11-23T21:53:47.081Z,46.05
2022-11-23T21:58:32.636Z,44.85
2022-11-23T22:03:20.289Z,41.17
2022-11-23T22:13:11.159Z,59.60
2022-11-23T22:17:56.502Z,53.65
2022-11-23T22:22:44.240Z,39.28
2022-11-23T22:27:29.600Z,39.72
2022-11-23T22:32:14.962Z,35.45
2022-11-23T22:37:00.029Z,42.03
2022-11-23T22:41:48.072Z,50.72
2022-11-23T22:46:33.165Z,47.83
2022-11-23T22:51:20.286Z,48.47
2022-11-23T22:56:07.487Z,51.45
2022-11-23T23:00:56.142Z,50.75
2022-11-23T23:05:41.747Z,51.25
2022-11-23T23:10:28.089Z,46.13
2022-11-23T23:15:14.480Z,52.95
2022-11-23T23:20:02.258Z,48.95
2022-11-23T23:24:47.896Z,42.10
2022-11-23T23:29:33.715Z,48.45
2022-11-23T23:34:19.230Z,58.40
2022-11-23T23:39:08.846Z,52.95
2022-11-23T23:43:54.408Z,49.03
2022-11-23T23:48:41.139Z,49.63
2022-11-23T23:53:26.692Z,52.85
2022-11-23T23:58:14.686Z,50.20
